createdAt,value
2022-12-28T00:01:15.227Z,1.67
2022-12-28T00:03:41.979Z,2.10
2022-12-28T00:06:08.910Z,2.20
2022-12-28T00:08:35.758Z,3.20
2022-12-28T00:11:08.288Z,2.03
2022-12-28T00:13:37.223Z,1.87
2022-12-28T00:16:10.534Z,3.47
2022-12-28T00:18:37.424Z,2.23
2022-12-28T00:21:04.500Z,1.80
2022-12-28T00:23:32.332Z,1.70
2022-12-28T00:26:14.027Z,2.93
2022-12-28T00:28:40.971Z,1.97
2022-12-28T00:31:07.742Z,2.57
2022-12-28T00:33:34.488Z,2.37
2022-12-28T00:36:01.290Z,2.00
2022-12-28T00:38:28.387Z,2.67
2022-12-28T00:40:55.025Z,3.30
2022-12-28T00:43:21.883Z,2.07
2022-12-28T00:45:48.540Z,1.87
2022-12-28T00:48:15.440Z,2.37
2022-12-28T00:50:45.256Z,2.90
2022-12-28T00:53:12.636Z,2.73
2022-12-28T00:55:39.323Z,1.43
2022-12-28T00:58:06.278Z,2.83
2022-12-28T01:00:33.029Z,3.40
2022-12-28T01:03:00.342Z,2.90
2022-12-28T01:05:27.001Z,3.30
2022-12-28T01:07:53.877Z,3.63
2022-12-28T01:10:20.503Z,2.90
2022-12-28T01:12:47.167Z,3.40
2022-12-28T01:15:14.056Z,3.90
2022-12-28T01:20:26.694Z,3.70
2022-12-28T01:25:37.766Z,4.17
2022-12-28T01:28:05.578Z,3.70
2022-12-28T01:30:32.361Z,4.13
2022-12-28T01:33:01.060Z,4.50
2022-12-28T01:35:28.633Z,4.73
2022-12-28T01:37:56.682Z,4.83
2022-12-28T01:40:23.447Z,4.27
2022-12-28T01:45:35.275Z,4.40
2022-12-28T01:50:46.600Z,5.07
2022-12-28T01:53:13.222Z,5.27
2022-12-28T01:55:41.304Z,5.40
2022-12-28T01:58:09.779Z,5.90
2022-12-28T02:03:22.046Z,6.10
2022-12-28T02:08:41.426Z,5.90
2022-12-28T02:13:53.021Z,4.93
2022-12-28T02:19:03.928Z,7.23
2022-12-28T02:21:49.027Z,6.00
2022-12-28T02:24:29.761Z,7.50
2022-12-28T02:26:57.014Z,7.43
2022-12-28T02:29:42.788Z,5.50
2022-12-28T02:32:18.788Z,7.50
2022-12-28T02:34:45.405Z,7.63
2022-12-28T02:37:38.578Z,7.57
2022-12-28T02:40:07.473Z,7.17
2022-12-28T02:42:37.007Z,7.03
2022-12-28T02:45:22.759Z,7.97
2022-12-28T02:48:07.979Z,8.23
2022-12-28T02:50:41.273Z,7.53
2022-12-28T02:53:15.199Z,7.17
2022-12-28T02:56:07.381Z,7.27
2022-12-28T02:58:34.219Z,7.07
2022-12-28T03:01:20.927Z,8.37
2022-12-28T03:04:03.581Z,6.77
2022-12-28T03:07:08.810Z,5.97
2022-12-28T03:09:52.922Z,7.70
2022-12-28T03:12:29.821Z,5.73
2022-12-28T03:15:04.010Z,7.40
2022-12-28T03:20:54.218Z,8.00
2022-12-28T03:26:42.485Z,6.93
2022-12-28T03:29:29.007Z,6.30
2022-12-28T03:31:55.751Z,7.85
2022-12-28T03:34:23.085Z,7.10
2022-12-28T03:39:49.752Z,4.80
2022-12-28T03:45:45.411Z,4.27
2022-12-28T03:50:52.300Z,4.17
2022-12-28T03:53:20.322Z,3.43
2022-12-28T03:55:49.162Z,4.93
2022-12-28T03:58:18.652Z,4.13
2022-12-28T04:00:45.550Z,5.17
2022-12-28T04:03:15.034Z,4.07
2022-12-28T04:05:42.759Z,3.17
2022-12-28T04:10:58.694Z,4.03
2022-12-28T04:13:25.295Z,4.43
2022-12-28T04:15:58.591Z,3.63
2022-12-28T04:18:26.335Z,3.60
2022-12-28T04:20:53.226Z,3.73
2022-12-28T04:23:20.116Z,2.30
2022-12-28T04:25:57.949Z,2.87
2022-12-28T04:28:25.104Z,3.58
2022-12-28T04:31:14.781Z,3.87
2022-12-28T04:33:48.788Z,3.20
2022-12-28T04:36:16.083Z,3.87
2022-12-28T04:38:45.921Z,3.27
2022-12-28T04:41:14.128Z,3.37
2022-12-28T04:43:40.787Z,3.87
2022-12-28T04:46:09.082Z,4.50
2022-12-28T04:48:35.728Z,4.97
2022-12-28T04:51:09.456Z,4.67
2022-12-28T04:53:39.383Z,4.50
2022-12-28T04:56:06.693Z,4.70
2022-12-28T04:58:33.451Z,3.03
2022-12-28T05:01:07.225Z,4.03
2022-12-28T05:03:34.153Z,4.90
2022-12-28T05:06:04.047Z,4.40
2022-12-28T05:08:35.114Z,4.80
2022-12-28T05:11:05.127Z,5.63
2022-12-28T05:13:32.011Z,4.57
2022-12-28T05:16:07.993Z,5.13
2022-12-28T05:18:35.012Z,4.87
2022-12-28T05:21:02.425Z,5.03
2022-12-28T05:23:30.258Z,4.60
2022-12-28T05:25:56.998Z,2.90
2022-12-28T05:28:23.976Z,5.77
2022-12-28T05:30:51.132Z,3.23
2022-12-28T05:33:18.540Z,5.50
2022-12-28T05:35:45.248Z,5.53
2022-12-28T05:38:12.397Z,7.87
2022-12-28T05:40:39.510Z,4.60
2022-12-28T05:43:06.699Z,4.50
2022-12-28T05:45:33.359Z,4.77
2022-12-28T05:48:00.652Z,6.87
2022-12-28T05:50:30.316Z,4.23
2022-12-28T05:52:58.257Z,6.17
2022-12-28T05:55:28.655Z,7.93
2022-12-28T05:57:56.837Z,7.63
2022-12-28T06:00:23.492Z,9.23
2022-12-28T06:02:50.247Z,6.43
2022-12-28T06:05:18.343Z,9.63
2022-12-28T06:07:45.927Z,8.27
2022-12-28T06:10:13.036Z,8.20
2022-12-28T06:12:40.249Z,7.53
2022-12-28T06:15:07.176Z,10.23
2022-12-28T06:17:33.850Z,6.93
2022-12-28T06:20:00.433Z,9.47
2022-12-28T06:22:27.540Z,10.63
2022-12-28T06:24:54.363Z,4.07
2022-12-28T06:27:22.380Z,9.13
2022-12-28T06:29:49.054Z,8.67
2022-12-28T06:32:16.373Z,9.13
2022-12-28T06:34:42.967Z,7.60
2022-12-28T06:37:09.635Z,6.50
2022-12-28T06:39:36.306Z,8.60
2022-12-28T06:42:02.943Z,9.17
2022-12-28T06:44:29.549Z,12.73
2022-12-28T06:46:56.533Z,9.30
2022-12-28T06:49:26.404Z,11.03
2022-12-28T06:51:53.594Z,9.57
2022-12-28T06:54:20.250Z,8.13
2022-12-28T06:56:47.024Z,8.47
2022-12-28T06:59:13.893Z,7.97
2022-12-28T07:01:44.814Z,7.13
2022-12-28T07:04:12.297Z,10.17
2022-12-28T07:06:39.906Z,10.40
2022-12-28T07:09:07.537Z,8.73
2022-12-28T07:11:34.230Z,8.77
2022-12-28T07:14:03.572Z,11.50
2022-12-28T07:18:59.281Z,12.13
2022-12-28T07:21:27.196Z,8.80
2022-12-28T07:23:55.111Z,10.10
2022-12-28T07:26:22.690Z,11.60
2022-12-28T07:31:40.019Z,11.80
2022-12-28T07:34:11.469Z,10.73
2022-12-28T07:36:38.422Z,5.67
2022-12-28T07:39:05.336Z,8.10
2022-12-28T07:41:36.227Z,9.93
2022-12-28T07:44:05.697Z,9.60
2022-12-28T07:46:32.911Z,9.50
2022-12-28T07:49:01.058Z,11.30
2022-12-28T07:51:28.568Z,9.33
2022-12-28T07:53:56.085Z,10.90
2022-12-28T07:56:23.226Z,9.63
2022-12-28T08:01:17.332Z,11.00
2022-12-28T08:03:44.534Z,11.83
2022-12-28T08:06:12.783Z,10.73
2022-12-28T08:08:43.134Z,8.70
2022-12-28T08:11:12.515Z,9.03
2022-12-28T08:13:41.921Z,7.40
2022-12-28T08:16:09.844Z,9.27
2022-12-28T08:18:37.861Z,10.03
2022-12-28T08:21:11.957Z,7.77
2022-12-28T08:23:38.971Z,10.40
2022-12-28T08:26:19.272Z,12.10
2022-12-28T08:28:47.118Z,11.20
2022-12-28T08:31:16.428Z,11.03
2022-12-28T08:34:17.381Z,10.60
2022-12-28T08:36:44.828Z,9.97
2022-12-28T08:39:12.566Z,11.67
2022-12-28T08:41:39.231Z,9.33
2022-12-28T08:44:07.335Z,9.73
2022-12-28T08:46:35.251Z,11.37
2022-12-28T08:49:02.273Z,8.23
2022-12-28T08:51:36.086Z,4.67
2022-12-28T08:54:03.097Z,9.27
2022-12-28T08:56:30.733Z,8.97
2022-12-28T08:58:57.728Z,8.57
2022-12-28T09:01:25.452Z,10.93
2022-12-28T09:03:53.474Z,13.13
2022-12-28T09:06:21.247Z,11.37
2022-12-28T09:09:04.753Z,13.20
2022-12-28T09:11:32.879Z,6.33
2022-12-28T09:14:00.106Z,9.97
2022-12-28T09:16:27.498Z,7.20
2022-12-28T09:18:54.883Z,12.50
2022-12-28T09:21:22.084Z,11.17
2022-12-28T09:23:49.335Z,11.43
2022-12-28T09:26:20.307Z,12.53
2022-12-28T09:28:49.411Z,8.17
2022-12-28T09:31:16.323Z,9.30
2022-12-28T09:36:48.183Z,8.53
2022-12-28T09:39:17.521Z,9.07
2022-12-28T09:41:45.561Z,6.27
2022-12-28T09:44:18.141Z,8.87
2022-12-28T09:46:54.084Z,11.10
2022-12-28T09:52:20.478Z,10.57
2022-12-28T09:54:48.644Z,11.13
2022-12-28T09:57:15.743Z,9.77
2022-12-28T09:59:43.127Z,10.23
2022-12-28T10:02:17.224Z,9.77
2022-12-28T10:04:49.090Z,11.07
2022-12-28T10:07:17.179Z,12.23
2022-12-28T10:09:43.979Z,10.97
2022-12-28T10:12:13.422Z,7.50
2022-12-28T10:14:40.205Z,7.90
2022-12-28T10:17:09.708Z,8.17
2022-12-28T10:19:36.502Z,12.77
2022-12-28T10:22:07.070Z,13.40
2022-12-28T10:24:34.010Z,11.40
2022-12-28T10:27:01.428Z,7.43
2022-12-28T10:29:29.694Z,12.00
2022-12-28T10:31:57.824Z,10.77
2022-12-28T10:34:25.323Z,10.57
2022-12-28T10:36:52.347Z,12.33
2022-12-28T10:39:28.778Z,10.67
2022-12-28T10:41:56.554Z,11.70
2022-12-28T10:44:41.323Z,6.07
2022-12-28T10:47:39.849Z,6.10
2022-12-28T10:52:56.306Z,7.97
2022-12-28T10:55:26.868Z,7.63
2022-12-28T11:00:42.865Z,7.40
2022-12-28T11:03:22.175Z,6.83
2022-12-28T11:08:37.289Z,6.83
2022-12-28T11:11:05.187Z,5.67
2022-12-28T11:13:32.059Z,8.67
2022-12-28T11:15:58.857Z,5.63
2022-12-28T11:18:33.245Z,4.10
2022-12-28T11:21:04.049Z,6.90
2022-12-28T11:23:33.232Z,7.70
2022-12-28T11:26:47.249Z,6.23
2022-12-28T11:29:14.699Z,5.27
2022-12-28T11:31:49.006Z,8.13
2022-12-28T11:34:18.391Z,4.80
2022-12-28T11:36:45.155Z,5.50
2022-12-28T11:39:32.627Z,3.43
2022-12-28T11:42:37.290Z,4.67
2022-12-28T11:44:49.464Z,3.30
2022-12-28T11:47:16.506Z,3.83
2022-12-28T11:49:44.499Z,6.70
2022-12-28T11:52:18.148Z,2.87
2022-12-28T11:54:54.906Z,5.80
2022-12-28T11:57:40.615Z,5.87
2022-12-28T12:00:22.168Z,4.27
2022-12-28T12:02:54.195Z,3.90
2022-12-28T12:05:39.416Z,3.90
2022-12-28T12:11:15.036Z,4.37
2022-12-28T12:13:43.105Z,3.43
2022-12-28T12:16:21.131Z,4.07
2022-12-28T12:18:52.264Z,3.17
2022-12-28T12:21:39.441Z,5.93
2022-12-28T12:24:26.975Z,2.97
2022-12-28T12:27:11.931Z,4.77
2022-12-28T12:29:45.370Z,4.70
2022-12-28T12:32:16.777Z,3.77
2022-12-28T12:34:47.270Z,3.30
2022-12-28T12:37:17.515Z,5.90
2022-12-28T12:39:50.822Z,5.20
2022-12-28T12:42:36.490Z,3.60
2022-12-28T12:45:06.336Z,3.77
2022-12-28T12:47:47.407Z,3.77
2022-12-28T12:50:23.611Z,5.30
2022-12-28T12:52:59.317Z,4.27
2022-12-28T12:55:45.585Z,6.43
2022-12-28T12:58:24.837Z,2.77
2022-12-28T13:01:18.205Z,3.33
2022-12-28T13:03:52.087Z,5.23
2022-12-28T13:09:13.658Z,5.70
2022-12-28T13:11:40.948Z,3.43
2022-12-28T13:14:12.003Z,5.50
2022-12-28T13:16:39.148Z,5.87
2022-12-28T13:21:51.805Z,5.27
2022-12-28T13:24:26.219Z,5.00
2022-12-28T13:26:54.931Z,3.37
2022-12-28T13:29:23.004Z,5.53
2022-12-28T13:31:50.055Z,3.83
2022-12-28T13:34:23.329Z,3.70
2022-12-28T13:36:50.827Z,3.43
2022-12-28T13:39:18.174Z,3.83
2022-12-28T13:41:53.090Z,3.17
2022-12-28T13:44:30.122Z,5.07
2022-12-28T13:47:00.133Z,4.23
2022-12-28T13:49:29.209Z,3.20
2022-12-28T13:51:57.641Z,3.33
2022-12-28T13:54:28.790Z,4.20
2022-12-28T13:57:14.657Z,5.10
2022-12-28T13:59:44.077Z,4.50
2022-12-28T14:02:13.860Z,4.07
2022-12-28T14:04:56.307Z,5.60
2022-12-28T14:07:26.201Z,5.33
2022-12-28T14:09:53.048Z,5.00
2022-12-28T14:12:19.910Z,4.67
2022-12-28T14:14:48.101Z,3.67
2022-12-28T14:17:14.909Z,5.47
2022-12-28T14:19:43.798Z,5.43
2022-12-28T14:25:10.493Z,6.93
2022-12-28T14:27:57.007Z,4.10
2022-12-28T14:30:24.443Z,5.80
2022-12-28T14:32:51.605Z,3.80
2022-12-28T14:38:04.442Z,6.83
2022-12-28T14:40:32.181Z,4.17
2022-12-28T14:43:23.791Z,3.87
2022-12-28T14:48:40.979Z,4.37
2022-12-28T14:54:10.136Z,4.03
2022-12-28T14:56:38.498Z,4.17
2022-12-28T14:59:05.740Z,4.77
2022-12-28T15:00:25.495Z,5.70
2022-12-28T15:00:26.256Z,5.97
2022-12-28T15:01:43.543Z,5.07
2022-12-28T15:04:30.889Z,6.87
2022-12-28T15:06:59.236Z,4.77
2022-12-28T15:09:26.147Z,6.57
2022-12-28T15:12:12.036Z,7.10
2022-12-28T15:14:39.895Z,7.73
2022-12-28T15:17:07.289Z,6.87
2022-12-28T15:19:34.877Z,5.40
2022-12-28T15:22:03.093Z,4.20
2022-12-28T15:24:33.806Z,6.17
2022-12-28T15:27:02.748Z,5.53
2022-12-28T15:32:19.654Z,8.53
2022-12-28T15:34:48.648Z,5.23
2022-12-28T15:37:15.645Z,4.70
2022-12-28T15:39:45.705Z,8.53
2022-12-28T15:42:12.859Z,8.20
2022-12-28T15:44:42.090Z,6.90
2022-12-28T15:47:11.078Z,7.33
2022-12-28T15:49:38.206Z,8.17
2022-12-28T15:52:06.388Z,8.30
2022-12-28T15:54:34.965Z,5.70
2022-12-28T15:57:09.041Z,6.83
2022-12-28T15:59:36.378Z,7.57
2022-12-28T16:02:04.875Z,6.27
2022-12-28T16:04:32.094Z,8.87
2022-12-28T16:06:59.690Z,7.27
2022-12-28T16:09:26.853Z,6.10
2022-12-28T16:11:55.631Z,6.33
2022-12-28T16:14:22.880Z,7.57
2022-12-28T16:16:50.690Z,7.07
2022-12-28T16:19:18.171Z,4.63
2022-12-28T16:21:45.372Z,6.20
2022-12-28T16:24:14.843Z,8.47
2022-12-28T16:26:43.798Z,3.60
2022-12-28T16:29:11.905Z,5.53
2022-12-28T16:31:43.048Z,5.47
2022-12-28T16:34:15.812Z,9.07
2022-12-28T16:36:42.894Z,4.97
2022-12-28T16:39:12.731Z,7.17
2022-12-28T16:41:39.945Z,8.97
2022-12-28T16:44:09.553Z,7.23
2022-12-28T16:46:36.593Z,7.80
2022-12-28T16:49:03.435Z,7.77
2022-12-28T16:51:34.581Z,8.97
2022-12-28T16:54:01.867Z,7.50
2022-12-28T16:56:29.553Z,4.50
2022-12-28T16:58:57.269Z,5.83
2022-12-28T17:01:27.804Z,8.33
2022-12-28T17:04:01.712Z,5.97
2022-12-28T17:06:29.167Z,9.07
2022-12-28T17:08:56.051Z,6.23
2022-12-28T17:11:24.280Z,6.90
2022-12-28T17:13:51.268Z,6.27
2022-12-28T17:16:19.513Z,8.07
2022-12-28T17:18:47.594Z,7.13
2022-12-28T17:21:15.179Z,9.27
2022-12-28T17:23:42.951Z,8.33
2022-12-28T17:26:12.730Z,7.50
2022-12-28T17:28:40.584Z,8.93
2022-12-28T17:31:10.718Z,9.13
2022-12-28T17:33:40.401Z,8.03
2022-12-28T17:36:09.667Z,5.23
2022-12-28T17:38:36.693Z,8.07
2022-12-28T17:41:09.674Z,9.03
2022-12-28T17:43:37.970Z,9.30
2022-12-28T17:46:06.671Z,8.77
2022-12-28T17:48:37.189Z,8.60
2022-12-28T17:51:11.011Z,8.00
2022-12-28T17:53:41.191Z,6.93
2022-12-28T17:56:13.622Z,8.17
2022-12-28T17:58:41.710Z,4.17
2022-12-28T18:01:08.675Z,5.70
2022-12-28T18:03:36.122Z,7.67
2022-12-28T18:06:05.010Z,7.10
2022-12-28T18:08:33.857Z,7.37
2022-12-28T18:11:00.674Z,7.47
2022-12-28T18:13:28.413Z,4.97
2022-12-28T18:15:55.672Z,7.17
2022-12-28T18:18:23.570Z,7.30
2022-12-28T18:21:09.652Z,6.93
2022-12-28T18:23:36.648Z,7.13
2022-12-28T18:26:10.950Z,7.37
2022-12-28T18:28:37.807Z,4.23
2022-12-28T18:31:05.136Z,7.23
2022-12-28T18:33:33.158Z,8.37
2022-12-28T18:36:05.054Z,5.80
2022-12-28T18:41:18.867Z,6.77
2022-12-28T18:43:46.275Z,6.97
2022-12-28T18:46:14.763Z,7.47
2022-12-28T18:48:41.818Z,7.77
2022-12-28T18:51:11.227Z,6.97
2022-12-28T18:53:38.906Z,6.67
2022-12-28T18:56:06.931Z,5.33
2022-12-28T18:58:36.351Z,4.73
2022-12-28T19:04:08.319Z,9.60
2022-12-28T19:06:35.481Z,12.13
2022-12-28T19:09:02.409Z,8.63
2022-12-28T19:11:29.893Z,9.53
2022-12-28T19:13:58.291Z,9.43
2022-12-28T19:16:31.064Z,8.70
2022-12-28T19:19:38.503Z,8.47
2022-12-28T19:22:08.189Z,7.67
2022-12-28T19:24:37.203Z,5.87
2022-12-28T19:27:06.178Z,6.00
2022-12-28T19:29:36.103Z,5.53
2022-12-28T19:32:06.280Z,6.43
2022-12-28T19:34:33.145Z,7.30
2022-12-28T19:37:01.158Z,7.57
2022-12-28T19:39:28.113Z,5.03
2022-12-28T19:41:55.851Z,5.93
2022-12-28T19:44:24.165Z,4.90
2022-12-28T19:46:51.648Z,5.33
2022-12-28T19:49:19.849Z,5.10
2022-12-28T19:51:46.717Z,5.67
2022-12-28T19:54:13.841Z,5.90
2022-12-28T19:56:43.010Z,5.10
2022-12-28T19:59:12.534Z,4.10
2022-12-28T20:02:19.083Z,3.90
2022-12-28T20:04:46.660Z,5.37
2022-12-28T20:07:13.446Z,5.17
2022-12-28T20:09:40.424Z,3.50
2022-12-28T20:12:13.856Z,4.47
2022-12-28T20:14:41.580Z,5.03
2022-12-28T20:17:09.444Z,5.67
2022-12-28T20:19:37.291Z,4.13
2022-12-28T20:22:38.380Z,4.50
2022-12-28T20:25:06.649Z,4.37
2022-12-28T20:27:33.735Z,5.37
2022-12-28T20:30:01.654Z,5.00
2022-12-28T20:32:29.656Z,3.93
2022-12-28T20:34:56.432Z,5.97
2022-12-28T20:37:51.085Z,6.60
2022-12-28T20:44:22.227Z,7.03
2022-12-28T20:54:56.719Z,5.47
2022-12-28T20:57:25.108Z,6.47
2022-12-28T20:59:51.899Z,6.77
2022-12-28T21:02:20.249Z,5.93
2022-12-28T21:04:47.405Z,8.17
2022-12-28T21:07:14.289Z,4.10
2022-12-28T21:09:42.338Z,7.27
2022-12-28T21:12:09.230Z,7.10
2022-12-28T21:14:35.883Z,7.90
2022-12-28T21:19:53.298Z,7.87
2022-12-28T21:22:20.398Z,6.33
2022-12-28T21:24:48.561Z,6.70
2022-12-28T21:27:15.579Z,7.23
2022-12-28T21:29:43.491Z,6.90
2022-12-28T21:32:10.310Z,7.07
2022-12-28T21:34:37.292Z,5.67
2022-12-28T21:37:23.072Z,5.53
2022-12-28T21:39:51.758Z,6.80
2022-12-28T21:42:25.877Z,6.93
2022-12-28T21:44:54.000Z,7.07
2022-12-28T21:47:21.811Z,6.83
2022-12-28T21:49:49.362Z,5.73
2022-12-28T21:52:16.056Z,7.23
2022-12-28T21:54:44.085Z,6.80
2022-12-28T21:57:11.268Z,6.47
2022-12-28T21:59:38.188Z,6.27
2022-12-28T22:02:36.687Z,6.87
2022-12-28T22:05:24.000Z,6.10
2022-12-28T22:08:13.458Z,7.87
2022-12-28T22:11:03.080Z,8.23
2022-12-28T22:13:32.226Z,7.83
2022-12-28T22:16:00.013Z,6.50
2022-12-28T22:19:00.387Z,7.57
2022-12-28T22:21:14.401Z,9.13
2022-12-28T22:23:41.055Z,8.53
2022-12-28T22:26:08.253Z,9.97
2022-12-28T22:28:35.415Z,9.17
2022-12-28T22:31:05.680Z,10.10
2022-12-28T22:33:33.132Z,10.37
2022-12-28T22:36:15.097Z,5.63
2022-12-28T22:38:42.526Z,10.30
2022-12-28T22:41:09.805Z,11.77
2022-12-28T22:43:42.731Z,10.40
2022-12-28T22:46:15.372Z,10.37
2022-12-28T22:48:42.051Z,10.73
2022-12-28T22:53:53.593Z,9.97
2022-12-28T22:56:21.105Z,10.57
2022-12-28T22:58:48.856Z,12.17
2022-12-28T23:01:16.267Z,10.30
2022-12-28T23:06:27.438Z,10.13
2022-12-28T23:08:54.051Z,8.93
2022-12-28T23:11:41.725Z,11.33
2022-12-28T23:17:11.858Z,9.07
2022-12-28T23:23:00.997Z,10.27
2022-12-28T23:25:46.461Z,9.30
2022-12-28T23:28:13.772Z,7.40
2022-12-28T23:30:41.266Z,9.33
2022-12-28T23:33:07.945Z,10.10
2022-12-28T23:35:34.556Z,9.17
2022-12-28T23:38:01.441Z,9.30
2022-12-28T23:40:28.031Z,10.20
2022-12-28T23:42:55.113Z,9.20
2022-12-28T23:45:21.679Z,8.57
2022-12-28T23:47:49.221Z,7.23
2022-12-28T23:50:16.393Z,10.10
2022-12-28T23:52:43.026Z,9.53
2022-12-28T23:55:10.131Z,9.57
2022-12-28T23:57:36.946Z,8.83
